sensor_id;sensor_type;location;lat;lon;timestamp;P1;durP1;ratioP1;P2;durP2;ratioP2
21206;SDS011;10761;48.532;8.026;2023-05-10T00:00:07;2.05;;;1.40;;
21206;SDS011;10761;48.532;8.026;2023-05-10T00:02:34;2.60;;;1.35;;
21206;SDS011;10761;48.532;8.026;2023-05-10T00:04:59;2.90;;;1.45;;
21206;SDS011;10761;48.532;8.026;2023-05-10T00:07:26;3.75;;;1.50;;
21206;SDS011;10761;48.532;8.026;2023-05-10T00:09:51;2.45;;;1.35;;
21206;SDS011;10761;48.532;8.026;2023-05-10T00:12:17;1.67;;;1.33;;
21206;SDS011;10761;48.532;8.026;2023-05-10T00:14:42;2.58;;;1.40;;
21206;SDS011;10761;48.532;8.026;2023-05-10T00:17:08;1.52;;;1.10;;
21206;SDS011;10761;48.532;8.026;2023-05-10T00:19:33;5.38;;;1.05;;
21206;SDS011;10761;48.532;8.026;2023-05-10T00:21:59;1.23;;;1.00;;
21206;SDS011;10761;48.532;8.026;2023-05-10T00:24:25;3.33;;;1.15;;
21206;SDS011;10761;48.532;8.026;2023-05-10T00:26:50;3.05;;;0.80;;
21206;SDS011;10761;48.532;8.026;2023-05-10T00:29:16;3.47;;;1.23;;
21206;SDS011;10761;48.532;8.026;2023-05-10T00:31:42;1.52;;;1.00;;
21206;SDS011;10761;48.532;8.026;2023-05-10T00:34:07;1.45;;;0.98;;
21206;SDS011;10761;48.532;8.026;2023-05-10T00:36:33;0.93;;;0.93;;
21206;SDS011;10761;48.532;8.026;2023-05-10T00:38:58;3.65;;;1.10;;
21206;SDS011;10761;48.532;8.026;2023-05-10T00:41:24;4.20;;;1.10;;
21206;SDS011;10761;48.532;8.026;2023-05-10T00:43:50;1.33;;;1.10;;
21206;SDS011;10761;48.532;8.026;2023-05-10T00:46:15;4.18;;;1.10;;
21206;SDS011;10761;48.532;8.026;2023-05-10T00:48:41;1.65;;;0.90;;
21206;SDS011;10761;48.532;8.026;2023-05-10T00:51:08;2.00;;;0.90;;
21206;SDS011;10761;48.532;8.026;2023-05-10T00:53:34;1.23;;;0.90;;
21206;SDS011;10761;48.532;8.026;2023-05-10T00:56:00;2.65;;;0.93;;
21206;SDS011;10761;48.532;8.026;2023-05-10T00:58:26;1.45;;;0.77;;
21206;SDS011;10761;48.532;8.026;2023-05-10T01:00:54;2.75;;;1.10;;
21206;SDS011;10761;48.532;8.026;2023-05-10T01:03:21;1.52;;;1.10;;
21206;SDS011;10761;48.532;8.026;2023-05-10T01:05:46;5.97;;;1.05;;
21206;SDS011;10761;48.532;8.026;2023-05-10T01:11:34;3.75;;;1.05;;
21206;SDS011;10761;48.532;8.026;2023-05-10T01:14:01;2.70;;;0.88;;
21206;SDS011;10761;48.532;8.026;2023-05-10T01:16:27;4.43;;;0.70;;
21206;SDS011;10761;48.532;8.026;2023-05-10T01:18:58;0.90;;;0.90;;
21206;SDS011;10761;48.532;8.026;2023-05-10T01:29:06;1.58;;;0.68;;
21206;SDS011;10761;48.532;8.026;2023-05-10T01:34:35;1.23;;;0.70;;
21206;SDS011;10761;48.532;8.026;2023-05-10T01:37:13;1.30;;;0.75;;
21206;SDS011;10761;48.532;8.026;2023-05-10T01:39:55;1.23;;;0.60;;
21206;SDS011;10761;48.532;8.026;2023-05-10T01:42:26;3.13;;;0.70;;
21206;SDS011;10761;48.532;8.026;2023-05-10T01:45:00;1.85;;;0.70;;
21206;SDS011;10761;48.532;8.026;2023-05-10T01:47:37;0.77;;;0.70;;
21206;SDS011;10761;48.532;8.026;2023-05-10T01:50:08;0.60;;;0.60;;
21206;SDS011;10761;48.532;8.026;2023-05-10T01:52:41;1.75;;;0.60;;
21206;SDS011;10761;48.532;8.026;2023-05-10T01:55:09;0.80;;;0.60;;
21206;SDS011;10761;48.532;8.026;2023-05-10T01:57:39;2.78;;;0.80;;
21206;SDS011;10761;48.532;8.026;2023-05-10T02:00:07;1.27;;;0.55;;
21206;SDS011;10761;48.532;8.026;2023-05-10T02:02:37;4.75;;;0.90;;
21206;SDS011;10761;48.532;8.026;2023-05-10T02:05:07;2.85;;;1.15;;
21206;SDS011;10761;48.532;8.026;2023-05-10T02:07:34;1.33;;;0.60;;
21206;SDS011;10761;48.532;8.026;2023-05-10T02:10:01;1.42;;;0.77;;
21206;SDS011;10761;48.532;8.026;2023-05-10T02:12:29;1.35;;;0.75;;
21206;SDS011;10761;48.532;8.026;2023-05-10T02:14:56;1.65;;;0.85;;
21206;SDS011;10761;48.532;8.026;2023-05-10T02:17:24;1.33;;;1.05;;
21206;SDS011;10761;48.532;8.026;2023-05-10T02:19:50;1.63;;;1.10;;
21206;SDS011;10761;48.532;8.026;2023-05-10T02:22:17;3.60;;;1.52;;
21206;SDS011;10761;48.532;8.026;2023-05-10T02:24:44;2.47;;;1.10;;
21206;SDS011;10761;48.532;8.026;2023-05-10T02:27:11;1.15;;;1.00;;
21206;SDS011;10761;48.532;8.026;2023-05-10T02:29:39;2.38;;;1.30;;
21206;SDS011;10761;48.532;8.026;2023-05-10T02:32:05;2.20;;;1.30;;
21206;SDS011;10761;48.532;8.026;2023-05-10T02:34:31;1.25;;;1.10;;
21206;SDS011;10761;48.532;8.026;2023-05-10T02:36:58;4.03;;;1.20;;
21206;SDS011;10761;48.532;8.026;2023-05-10T02:39:25;5.30;;;1.30;;
21206;SDS011;10761;48.532;8.026;2023-05-10T02:41:53;5.07;;;1.10;;
21206;SDS011;10761;48.532;8.026;2023-05-10T02:44:20;3.08;;;1.25;;
21206;SDS011;10761;48.532;8.026;2023-05-10T02:46:47;4.65;;;1.35;;
21206;SDS011;10761;48.532;8.026;2023-05-10T02:49:13;3.63;;;1.52;;
21206;SDS011;10761;48.532;8.026;2023-05-10T02:51:50;3.30;;;1.33;;
21206;SDS011;10761;48.532;8.026;2023-05-10T02:54:20;1.30;;;1.00;;
21206;SDS011;10761;48.532;8.026;2023-05-10T02:56:59;2.20;;;1.08;;
21206;SDS011;10761;48.532;8.026;2023-05-10T02:59:28;1.33;;;1.00;;
21206;SDS011;10761;48.532;8.026;2023-05-10T03:01:54;4.65;;;1.20;;
21206;SDS011;10761;48.532;8.026;2023-05-10T03:04:20;1.15;;;1.05;;
21206;SDS011;10761;48.532;8.026;2023-05-10T03:06:45;3.63;;;1.20;;
21206;SDS011;10761;48.532;8.026;2023-05-10T03:09:11;2.08;;;1.00;;
21206;SDS011;10761;48.532;8.026;2023-05-10T03:19:48;2.47;;;1.30;;
21206;SDS011;10761;48.532;8.026;2023-05-10T03:22:34;2.97;;;1.27;;
21206;SDS011;10761;48.532;8.026;2023-05-10T03:25:12;1.27;;;1.17;;
21206;SDS011;10761;48.532;8.026;2023-05-10T03:27:42;1.23;;;1.13;;
21206;SDS011;10761;48.532;8.026;2023-05-10T03:30:10;3.42;;;1.25;;
21206;SDS011;10761;48.532;8.026;2023-05-10T03:32:37;2.35;;;1.20;;
21206;SDS011;10761;48.532;8.026;2023-05-10T03:35:07;3.28;;;1.17;;
21206;SDS011;10761;48.532;8.026;2023-05-10T03:37:33;2.33;;;1.10;;
21206;SDS011;10761;48.532;8.026;2023-05-10T03:39:59;1.75;;;1.10;;
21206;SDS011;10761;48.532;8.026;2023-05-10T03:42:25;2.65;;;1.25;;
21206;SDS011;10761;48.532;8.026;2023-05-10T03:44:50;1.60;;;1.20;;
21206;SDS011;10761;48.532;8.026;2023-05-10T03:47:16;2.47;;;1.20;;
21206;SDS011;10761;48.532;8.026;2023-05-10T03:49:41;2.15;;;1.30;;
21206;SDS011;10761;48.532;8.026;2023-05-10T03:52:07;1.92;;;1.15;;
21206;SDS011;10761;48.532;8.026;2023-05-10T03:54:32;2.78;;;1.30;;
21206;SDS011;10761;48.532;8.026;2023-05-10T03:56:58;2.13;;;1.27;;
21206;SDS011;10761;48.532;8.026;2023-05-10T03:59:25;1.52;;;1.42;;
21206;SDS011;10761;48.532;8.026;2023-05-10T04:01:51;4.10;;;1.20;;
21206;SDS011;10761;48.532;8.026;2023-05-10T04:04:17;2.72;;;1.50;;
21206;SDS011;10761;48.532;8.026;2023-05-10T04:06:43;3.90;;;1.25;;
21206;SDS011;10761;48.532;8.026;2023-05-10T04:09:09;4.05;;;1.20;;
21206;SDS011;10761;48.532;8.026;2023-05-10T04:11:35;1.48;;;1.23;;
21206;SDS011;10761;48.532;8.026;2023-05-10T04:14:01;3.88;;;1.15;;
21206;SDS011;10761;48.532;8.026;2023-05-10T04:16:27;4.93;;;1.40;;
21206;SDS011;10761;48.532;8.026;2023-05-10T04:18:52;2.60;;;1.23;;
21206;SDS011;10761;48.532;8.026;2023-05-10T04:21:18;3.28;;;1.23;;
21206;SDS011;10761;48.532;8.026;2023-05-10T04:23:44;3.13;;;1.27;;
21206;SDS011;10761;48.532;8.026;2023-05-10T04:26:10;0.90;;;0.90;;
21206;SDS011;10761;48.532;8.026;2023-05-10T04:28:35;3.45;;;1.10;;
21206;SDS011;10761;48.532;8.026;2023-05-10T04:31:04;3.15;;;1.17;;
21206;SDS011;10761;48.532;8.026;2023-05-10T04:33:31;2.28;;;1.00;;
21206;SDS011;10761;48.532;8.026;2023-05-10T04:35:57;1.15;;;0.95;;
21206;SDS011;10761;48.532;8.026;2023-05-10T04:38:23;1.40;;;0.90;;
21206;SDS011;10761;48.532;8.026;2023-05-10T04:40:49;1.08;;;0.80;;
21206;SDS011;10761;48.532;8.026;2023-05-10T04:43:15;1.15;;;0.90;;
21206;SDS011;10761;48.532;8.026;2023-05-10T04:45:40;1.50;;;0.90;;
21206;SDS011;10761;48.532;8.026;2023-05-10T04:48:06;1.10;;;1.00;;
21206;SDS011;10761;48.532;8.026;2023-05-10T04:50:32;1.10;;;1.00;;
21206;SDS011;10761;48.532;8.026;2023-05-10T04:52:58;0.73;;;0.70;;
21206;SDS011;10761;48.532;8.026;2023-05-10T04:55:24;2.30;;;0.90;;
21206;SDS011;10761;48.532;8.026;2023-05-10T04:57:49;1.77;;;0.93;;
21206;SDS011;10761;48.532;8.026;2023-05-10T05:00:15;1.65;;;1.10;;
21206;SDS011;10761;48.532;8.026;2023-05-10T05:02:44;1.08;;;1.00;;
21206;SDS011;10761;48.532;8.026;2023-05-10T05:05:11;1.77;;;1.00;;
21206;SDS011;10761;48.532;8.026;2023-05-10T05:07:37;4.00;;;0.98;;
21206;SDS011;10761;48.532;8.026;2023-05-10T05:10:03;1.92;;;1.13;;
21206;SDS011;10761;48.532;8.026;2023-05-10T05:12:33;4.07;;;1.40;;
21206;SDS011;10761;48.532;8.026;2023-05-10T05:14:59;5.70;;;1.95;;
21206;SDS011;10761;48.532;8.026;2023-05-10T05:17:25;3.15;;;1.63;;
21206;SDS011;10761;48.532;8.026;2023-05-10T05:19:51;5.32;;;2.20;;
21206;SDS011;10761;48.532;8.026;2023-05-10T05:22:16;7.18;;;2.85;;
21206;SDS011;10761;48.532;8.026;2023-05-10T05:24:42;5.90;;;2.65;;
21206;SDS011;10761;48.532;8.026;2023-05-10T05:27:08;5.53;;;2.40;;
21206;SDS011;10761;48.532;8.026;2023-05-10T05:29:33;3.20;;;2.00;;
21206;SDS011;10761;48.532;8.026;2023-05-10T05:31:59;3.45;;;1.92;;
21206;SDS011;10761;48.532;8.026;2023-05-10T05:34:25;4.93;;;1.90;;
21206;SDS011;10761;48.532;8.026;2023-05-10T05:36:50;2.92;;;1.75;;
21206;SDS011;10761;48.532;8.026;2023-05-10T05:39:16;2.00;;;1.40;;
21206;SDS011;10761;48.532;8.026;2023-05-10T05:41:42;4.90;;;1.55;;
21206;SDS011;10761;48.532;8.026;2023-05-10T05:44:08;2.30;;;1.50;;
21206;SDS011;10761;48.532;8.026;2023-05-10T05:46:34;2.83;;;1.23;;
21206;SDS011;10761;48.532;8.026;2023-05-10T05:48:59;1.45;;;1.20;;
21206;SDS011;10761;48.532;8.026;2023-05-10T05:51:25;4.28;;;1.30;;
21206;SDS011;10761;48.532;8.026;2023-05-10T05:53:50;2.95;;;1.20;;
21206;SDS011;10761;48.532;8.026;2023-05-10T05:56:16;4.40;;;1.40;;
21206;SDS011;10761;48.532;8.026;2023-05-10T05:58:50;4.38;;;1.50;;
21206;SDS011;10761;48.532;8.026;2023-05-10T06:01:16;1.75;;;1.10;;
21206;SDS011;10761;48.532;8.026;2023-05-10T06:03:41;1.42;;;1.30;;
21206;SDS011;10761;48.532;8.026;2023-05-10T06:06:07;3.35;;;1.88;;
21206;SDS011;10761;48.532;8.026;2023-05-10T06:08:33;6.82;;;1.38;;
21206;SDS011;10761;48.532;8.026;2023-05-10T06:11:00;6.60;;;1.40;;
21206;SDS011;10761;48.532;8.026;2023-05-10T06:13:25;3.72;;;1.35;;
21206;SDS011;10761;48.532;8.026;2023-05-10T06:15:57;3.63;;;1.60;;
21206;SDS011;10761;48.532;8.026;2023-05-10T06:18:23;3.90;;;1.30;;
21206;SDS011;10761;48.532;8.026;2023-05-10T06:20:49;2.92;;;1.60;;
21206;SDS011;10761;48.532;8.026;2023-05-10T06:23:15;1.88;;;1.48;;
21206;SDS011;10761;48.532;8.026;2023-05-10T06:25:40;4.57;;;1.52;;
21206;SDS011;10761;48.532;8.026;2023-05-10T06:28:06;1.85;;;1.63;;
21206;SDS011;10761;48.532;8.026;2023-05-10T06:30:32;7.82;;;1.20;;
21206;SDS011;10761;48.532;8.026;2023-05-10T06:32:57;6.03;;;1.02;;
21206;SDS011;10761;48.532;8.026;2023-05-10T06:35:23;3.63;;;1.08;;
21206;SDS011;10761;48.532;8.026;2023-05-10T06:37:49;3.65;;;1.10;;
21206;SDS011;10761;48.532;8.026;2023-05-10T06:40:15;4.45;;;1.55;;
21206;SDS011;10761;48.532;8.026;2023-05-10T06:42:41;3.83;;;1.42;;
21206;SDS011;10761;48.532;8.026;2023-05-10T06:45:06;2.47;;;1.50;;
21206;SDS011;10761;48.532;8.026;2023-05-10T06:47:33;2.78;;;1.38;;
21206;SDS011;10761;48.532;8.026;2023-05-10T06:49:59;1.67;;;1.25;;
21206;SDS011;10761;48.532;8.026;2023-05-10T06:52:24;2.60;;;1.10;;
21206;SDS011;10761;48.532;8.026;2023-05-10T06:54:50;3.33;;;1.30;;
21206;SDS011;10761;48.532;8.026;2023-05-10T06:57:16;1.95;;;1.33;;
21206;SDS011;10761;48.532;8.026;2023-05-10T06:59:42;3.03;;;1.00;;
21206;SDS011;10761;48.532;8.026;2023-05-10T07:02:08;3.92;;;1.10;;
21206;SDS011;10761;48.532;8.026;2023-05-10T07:04:34;0.90;;;0.90;;
21206;SDS011;10761;48.532;8.026;2023-05-10T07:06:59;3.10;;;0.90;;
21206;SDS011;10761;48.532;8.026;2023-05-10T07:09:25;4.03;;;0.85;;
21206;SDS011;10761;48.532;8.026;2023-05-10T07:11:50;0.98;;;0.88;;
21206;SDS011;10761;48.532;8.026;2023-05-10T07:14:16;1.60;;;0.82;;
21206;SDS011;10761;48.532;8.026;2023-05-10T07:16:41;2.05;;;1.00;;
21206;SDS011;10761;48.532;8.026;2023-05-10T07:19:07;1.00;;;0.82;;
21206;SDS011;10761;48.532;8.026;2023-05-10T07:21:32;4.25;;;0.93;;
21206;SDS011;10761;48.532;8.026;2023-05-10T07:23:59;0.88;;;0.88;;
21206;SDS011;10761;48.532;8.026;2023-05-10T07:26:25;3.58;;;1.08;;
21206;SDS011;10761;48.532;8.026;2023-05-10T07:28:51;1.83;;;0.80;;
21206;SDS011;10761;48.532;8.026;2023-05-10T07:31:16;2.97;;;0.95;;
21206;SDS011;10761;48.532;8.026;2023-05-10T07:33:42;2.65;;;1.20;;
21206;SDS011;10761;48.532;8.026;2023-05-10T07:36:08;2.35;;;0.93;;
21206;SDS011;10761;48.532;8.026;2023-05-10T07:38:33;1.80;;;1.15;;
21206;SDS011;10761;48.532;8.026;2023-05-10T07:40:59;3.72;;;1.08;;
21206;SDS011;10761;48.532;8.026;2023-05-10T07:43:24;1.38;;;1.20;;
21206;SDS011;10761;48.532;8.026;2023-05-10T07:45:50;8.70;;;1.55;;
21206;SDS011;10761;48.532;8.026;2023-05-10T07:48:16;2.47;;;1.75;;
21206;SDS011;10761;48.532;8.026;2023-05-10T07:50:41;3.72;;;1.08;;
21206;SDS011;10761;48.532;8.026;2023-05-10T07:53:07;2.28;;;1.10;;
21206;SDS011;10761;48.532;8.026;2023-05-10T07:55:33;4.82;;;1.10;;
21206;SDS011;10761;48.532;8.026;2023-05-10T07:57:58;1.52;;;0.90;;
21206;SDS011;10761;48.532;8.026;2023-05-10T08:00:26;2.70;;;1.20;;
21206;SDS011;10761;48.532;8.026;2023-05-10T08:02:51;1.95;;;0.93;;
21206;SDS011;10761;48.532;8.026;2023-05-10T08:05:17;2.55;;;1.10;;
21206;SDS011;10761;48.532;8.026;2023-05-10T08:07:43;4.25;;;1.05;;
21206;SDS011;10761;48.532;8.026;2023-05-10T08:10:09;1.38;;;0.88;;
21206;SDS011;10761;48.532;8.026;2023-05-10T08:12:36;4.93;;;1.00;;
21206;SDS011;10761;48.532;8.026;2023-05-10T08:15:02;1.52;;;0.90;;
21206;SDS011;10761;48.532;8.026;2023-05-10T08:17:28;3.70;;;1.20;;
21206;SDS011;10761;48.532;8.026;2023-05-10T08:19:53;3.03;;;1.20;;
21206;SDS011;10761;48.532;8.026;2023-05-10T08:22:19;1.85;;;1.15;;
21206;SDS011;10761;48.532;8.026;2023-05-10T08:24:45;4.30;;;1.27;;
21206;SDS011;10761;48.532;8.026;2023-05-10T08:27:10;5.63;;;1.20;;
21206;SDS011;10761;48.532;8.026;2023-05-10T08:29:36;2.00;;;1.20;;
21206;SDS011;10761;48.532;8.026;2023-05-10T08:32:02;3.90;;;1.02;;
21206;SDS011;10761;48.532;8.026;2023-05-10T08:34:28;2.05;;;1.10;;
21206;SDS011;10761;48.532;8.026;2023-05-10T08:36:53;4.45;;;1.20;;
21206;SDS011;10761;48.532;8.026;2023-05-10T08:39:19;4.47;;;1.48;;
21206;SDS011;10761;48.532;8.026;2023-05-10T08:41:45;2.38;;;1.50;;
21206;SDS011;10761;48.532;8.026;2023-05-10T08:44:12;4.70;;;1.40;;
21206;SDS011;10761;48.532;8.026;2023-05-10T08:46:41;3.08;;;0.93;;
21206;SDS011;10761;48.532;8.026;2023-05-10T08:49:10;2.28;;;0.80;;
21206;SDS011;10761;48.532;8.026;2023-05-10T08:51:42;2.13;;;0.57;;
21206;SDS011;10761;48.532;8.026;2023-05-10T08:54:12;4.70;;;0.80;;
21206;SDS011;10761;48.532;8.026;2023-05-10T08:56:38;1.20;;;0.60;;
21206;SDS011;10761;48.532;8.026;2023-05-10T08:59:04;1.52;;;0.40;;
21206;SDS011;10761;48.532;8.026;2023-05-10T09:01:30;3.45;;;0.50;;
21206;SDS011;10761;48.532;8.026;2023-05-10T09:03:57;2.08;;;0.60;;
21206;SDS011;10761;48.532;8.026;2023-05-10T09:06:23;2.92;;;0.50;;
21206;SDS011;10761;48.532;8.026;2023-05-10T09:08:49;0.40;;;0.40;;
21206;SDS011;10761;48.532;8.026;2023-05-10T09:11:15;1.75;;;0.30;;
21206;SDS011;10761;48.532;8.026;2023-05-10T09:13:42;3.30;;;0.50;;
21206;SDS011;10761;48.532;8.026;2023-05-10T09:16:09;1.90;;;0.40;;
21206;SDS011;10761;48.532;8.026;2023-05-10T09:18:34;2.65;;;0.63;;
21206;SDS011;10761;48.532;8.026;2023-05-10T09:21:00;2.22;;;0.50;;
21206;SDS011;10761;48.532;8.026;2023-05-10T09:23:25;1.00;;;0.40;;
21206;SDS011;10761;48.532;8.026;2023-05-10T09:26:03;1.53;;;0.40;;
21206;SDS011;10761;48.532;8.026;2023-05-10T09:28:33;0.93;;;0.40;;
21206;SDS011;10761;48.532;8.026;2023-05-10T09:30:59;0.90;;;0.40;;
21206;SDS011;10761;48.532;8.026;2023-05-10T09:33:25;2.47;;;0.45;;
21206;SDS011;10761;48.532;8.026;2023-05-10T09:35:51;0.50;;;0.50;;
21206;SDS011;10761;48.532;8.026;2023-05-10T09:38:17;4.22;;;0.70;;
21206;SDS011;10761;48.532;8.026;2023-05-10T09:40:42;1.35;;;0.70;;
21206;SDS011;10761;48.532;8.026;2023-05-10T09:43:19;2.42;;;0.88;;
21206;SDS011;10761;48.532;8.026;2023-05-10T09:45:45;2.30;;;0.60;;
21206;SDS011;10761;48.532;8.026;2023-05-10T09:48:14;1.73;;;0.50;;
21206;SDS011;10761;48.532;8.026;2023-05-10T09:50:40;0.47;;;0.47;;
21206;SDS011;10761;48.532;8.026;2023-05-10T09:53:06;0.80;;;0.47;;
21206;SDS011;10761;48.532;8.026;2023-05-10T09:55:39;3.08;;;0.50;;
21206;SDS011;10761;48.532;8.026;2023-05-10T09:58:14;3.42;;;0.70;;
21206;SDS011;10761;48.532;8.026;2023-05-10T10:00:41;2.67;;;0.82;;
21206;SDS011;10761;48.532;8.026;2023-05-10T10:03:13;5.47;;;0.60;;
21206;SDS011;10761;48.532;8.026;2023-05-10T10:05:40;0.75;;;0.52;;
21206;SDS011;10761;48.532;8.026;2023-05-10T10:08:10;2.97;;;0.90;;
21206;SDS011;10761;48.532;8.026;2023-05-10T10:10:36;1.00;;;0.70;;
21206;SDS011;10761;48.532;8.026;2023-05-10T10:13:05;2.42;;;0.70;;
21206;SDS011;10761;48.532;8.026;2023-05-10T10:15:31;1.77;;;0.90;;
21206;SDS011;10761;48.532;8.026;2023-05-10T10:17:58;2.53;;;0.70;;
21206;SDS011;10761;48.532;8.026;2023-05-10T10:20:25;6.47;;;0.85;;
21206;SDS011;10761;48.532;8.026;2023-05-10T10:22:51;4.60;;;0.70;;
21206;SDS011;10761;48.532;8.026;2023-05-10T10:25:17;0.98;;;0.60;;
21206;SDS011;10761;48.532;8.026;2023-05-10T10:36:00;2.40;;;0.70;;
21206;SDS011;10761;48.532;8.026;2023-05-10T10:46:58;4.68;;;0.50;;
21206;SDS011;10761;48.532;8.026;2023-05-10T10:49:27;1.38;;;0.68;;
21206;SDS011;10761;48.532;8.026;2023-05-10T10:52:15;1.27;;;0.60;;
21206;SDS011;10761;48.532;8.026;2023-05-10T10:57:24;1.92;;;0.65;;
21206;SDS011;10761;48.532;8.026;2023-05-10T10:59:51;4.00;;;0.70;;
21206;SDS011;10761;48.532;8.026;2023-05-10T11:05:25;2.20;;;0.80;;
21206;SDS011;10761;48.532;8.026;2023-05-10T11:08:07;3.45;;;0.70;;
21206;SDS011;10761;48.532;8.026;2023-05-10T11:13:45;1.77;;;0.70;;
21206;SDS011;10761;48.532;8.026;2023-05-10T11:16:20;3.72;;;0.80;;
21206;SDS011;10761;48.532;8.026;2023-05-10T11:19:30;2.65;;;0.90;;
21206;SDS011;10761;48.532;8.026;2023-05-10T11:21:50;1.25;;;0.60;;
21206;SDS011;10761;48.532;8.026;2023-05-10T11:24:34;1.83;;;0.50;;
21206;SDS011;10761;48.532;8.026;2023-05-10T11:27:00;3.13;;;0.60;;
21206;SDS011;10761;48.532;8.026;2023-05-10T11:29:26;3.33;;;0.70;;
21206;SDS011;10761;48.532;8.026;2023-05-10T11:31:51;0.90;;;0.50;;
21206;SDS011;10761;48.532;8.026;2023-05-10T11:34:27;1.70;;;0.50;;
21206;SDS011;10761;48.532;8.026;2023-05-10T11:37:00;1.95;;;0.57;;
21206;SDS011;10761;48.532;8.026;2023-05-10T11:39:26;1.52;;;0.50;;
21206;SDS011;10761;48.532;8.026;2023-05-10T11:41:53;1.65;;;0.65;;
21206;SDS011;10761;48.532;8.026;2023-05-10T11:44:19;2.33;;;0.63;;
21206;SDS011;10761;48.532;8.026;2023-05-10T11:46:45;2.28;;;0.50;;
21206;SDS011;10761;48.532;8.026;2023-05-10T11:49:10;0.45;;;0.40;;
21206;SDS011;10761;48.532;8.026;2023-05-10T11:51:38;1.60;;;0.70;;
21206;SDS011;10761;48.532;8.026;2023-05-10T11:54:07;1.98;;;0.52;;
21206;SDS011;10761;48.532;8.026;2023-05-10T11:56:34;4.05;;;0.43;;
21206;SDS011;10761;48.532;8.026;2023-05-10T11:59:01;2.58;;;0.60;;
21206;SDS011;10761;48.532;8.026;2023-05-10T12:01:27;0.70;;;0.50;;
21206;SDS011;10761;48.532;8.026;2023-05-10T12:03:54;1.33;;;0.40;;
21206;SDS011;10761;48.532;8.026;2023-05-10T12:06:26;4.07;;;0.70;;
21206;SDS011;10761;48.532;8.026;2023-05-10T12:08:53;1.63;;;0.77;;
21206;SDS011;10761;48.532;8.026;2023-05-10T12:11:19;0.73;;;0.30;;
21206;SDS011;10761;48.532;8.026;2023-05-10T12:13:47;1.10;;;0.50;;
21206;SDS011;10761;48.532;8.026;2023-05-10T12:16:16;2.28;;;0.50;;
21206;SDS011;10761;48.532;8.026;2023-05-10T12:18:49;0.85;;;0.38;;
21206;SDS011;10761;48.532;8.026;2023-05-10T12:21:16;4.00;;;0.50;;
21206;SDS011;10761;48.532;8.026;2023-05-10T12:23:42;1.85;;;0.50;;
21206;SDS011;10761;48.532;8.026;2023-05-10T12:26:11;0.77;;;0.40;;
21206;SDS011;10761;48.532;8.026;2023-05-10T12:28:37;1.27;;;0.47;;
21206;SDS011;10761;48.532;8.026;2023-05-10T12:31:05;2.10;;;0.60;;
21206;SDS011;10761;48.532;8.026;2023-05-10T12:33:41;1.38;;;0.57;;
21206;SDS011;10761;48.532;8.026;2023-05-10T12:36:08;2.00;;;0.70;;
21206;SDS011;10761;48.532;8.026;2023-05-10T12:38:36;1.05;;;0.50;;
21206;SDS011;10761;48.532;8.026;2023-05-10T12:41:12;0.60;;;0.40;;
21206;SDS011;10761;48.532;8.026;2023-05-10T12:43:42;1.92;;;0.52;;
21206;SDS011;10761;48.532;8.026;2023-05-10T12:46:08;1.88;;;0.52;;
21206;SDS011;10761;48.532;8.026;2023-05-10T12:48:35;1.58;;;0.50;;
21206;SDS011;10761;48.532;8.026;2023-05-10T12:51:02;3.50;;;0.98;;
21206;SDS011;10761;48.532;8.026;2023-05-10T12:53:28;2.65;;;0.50;;
21206;SDS011;10761;48.532;8.026;2023-05-10T12:55:54;1.52;;;0.38;;
21206;SDS011;10761;48.532;8.026;2023-05-10T12:58:20;1.25;;;0.60;;
21206;SDS011;10761;48.532;8.026;2023-05-10T13:00:46;2.15;;;0.30;;
21206;SDS011;10761;48.532;8.026;2023-05-10T13:03:11;1.52;;;0.40;;
21206;SDS011;10761;48.532;8.026;2023-05-10T13:05:37;1.80;;;0.47;;
21206;SDS011;10761;48.532;8.026;2023-05-10T13:08:03;1.17;;;0.40;;
21206;SDS011;10761;48.532;8.026;2023-05-10T13:10:30;2.90;;;0.52;;
21206;SDS011;10761;48.532;8.026;2023-05-10T13:12:56;2.15;;;0.40;;
21206;SDS011;10761;48.532;8.026;2023-05-10T13:15:23;4.28;;;0.60;;
21206;SDS011;10761;48.532;8.026;2023-05-10T13:17:49;0.70;;;0.30;;
21206;SDS011;10761;48.532;8.026;2023-05-10T13:20:14;3.10;;;0.45;;
21206;SDS011;10761;48.532;8.026;2023-05-10T13:22:41;0.95;;;0.40;;
21206;SDS011;10761;48.532;8.026;2023-05-10T13:25:07;3.83;;;0.40;;
21206;SDS011;10761;48.532;8.026;2023-05-10T13:27:33;2.38;;;0.75;;
21206;SDS011;10761;48.532;8.026;2023-05-10T13:29:59;0.95;;;0.43;;
21206;SDS011;10761;48.532;8.026;2023-05-10T13:32:25;1.95;;;0.30;;
21206;SDS011;10761;48.532;8.026;2023-05-10T13:34:51;0.40;;;0.40;;
21206;SDS011;10761;48.532;8.026;2023-05-10T13:37:17;3.53;;;0.45;;
21206;SDS011;10761;48.532;8.026;2023-05-10T13:39:42;1.42;;;0.40;;
21206;SDS011;10761;48.532;8.026;2023-05-10T13:42:08;2.65;;;0.50;;
21206;SDS011;10761;48.532;8.026;2023-05-10T13:44:33;2.22;;;0.40;;
21206;SDS011;10761;48.532;8.026;2023-05-10T13:46:59;0.65;;;0.25;;
21206;SDS011;10761;48.532;8.026;2023-05-10T13:49:25;0.85;;;0.30;;
21206;SDS011;10761;48.532;8.026;2023-05-10T13:51:50;2.17;;;0.40;;
21206;SDS011;10761;48.532;8.026;2023-05-10T13:54:17;0.73;;;0.40;;
21206;SDS011;10761;48.532;8.026;2023-05-10T13:56:44;3.22;;;0.47;;
21206;SDS011;10761;48.532;8.026;2023-05-10T13:59:12;0.75;;;0.45;;
21206;SDS011;10761;48.532;8.026;2023-05-10T14:01:39;3.42;;;0.68;;
21206;SDS011;10761;48.532;8.026;2023-05-10T14:04:05;4.10;;;0.55;;
21206;SDS011;10761;48.532;8.026;2023-05-10T14:06:31;0.60;;;0.30;;
21206;SDS011;10761;48.532;8.026;2023-05-10T14:08:57;3.95;;;0.45;;
21206;SDS011;10761;48.532;8.026;2023-05-10T14:11:28;0.65;;;0.30;;
21206;SDS011;10761;48.532;8.026;2023-05-10T14:13:54;0.30;;;0.28;;
21206;SDS011;10761;48.532;8.026;2023-05-10T14:16:20;1.40;;;0.30;;
21206;SDS011;10761;48.532;8.026;2023-05-10T14:18:46;1.50;;;0.40;;
21206;SDS011;10761;48.532;8.026;2023-05-10T14:21:11;0.73;;;0.40;;
21206;SDS011;10761;48.532;8.026;2023-05-10T14:23:37;0.50;;;0.35;;
21206;SDS011;10761;48.532;8.026;2023-05-10T14:26:03;0.90;;;0.30;;
21206;SDS011;10761;48.532;8.026;2023-05-10T14:28:29;0.65;;;0.40;;
21206;SDS011;10761;48.532;8.026;2023-05-10T14:30:54;5.88;;;0.50;;
21206;SDS011;10761;48.532;8.026;2023-05-10T14:33:20;2.30;;;0.40;;
21206;SDS011;10761;48.532;8.026;2023-05-10T14:35:46;1.27;;;0.30;;
21206;SDS011;10761;48.532;8.026;2023-05-10T14:38:12;0.95;;;0.32;;
21206;SDS011;10761;48.532;8.026;2023-05-10T14:40:38;3.22;;;0.45;;
21206;SDS011;10761;48.532;8.026;2023-05-10T14:43:04;1.20;;;0.38;;
21206;SDS011;10761;48.532;8.026;2023-05-10T14:45:29;1.33;;;0.30;;
21206;SDS011;10761;48.532;8.026;2023-05-10T14:47:55;0.30;;;0.30;;
21206;SDS011;10761;48.532;8.026;2023-05-10T14:50:22;2.58;;;0.20;;
21206;SDS011;10761;48.532;8.026;2023-05-10T14:52:48;0.77;;;0.20;;
21206;SDS011;10761;48.532;8.026;2023-05-10T14:55:14;0.30;;;0.22;;
21206;SDS011;10761;48.532;8.026;2023-05-10T14:57:40;1.80;;;0.30;;
21206;SDS011;10761;48.532;8.026;2023-05-10T15:00:06;1.70;;;0.30;;
21206;SDS011;10761;48.532;8.026;2023-05-10T15:02:32;0.45;;;0.25;;
21206;SDS011;10761;48.532;8.026;2023-05-10T15:04:58;0.82;;;0.40;;
21206;SDS011;10761;48.532;8.026;2023-05-10T15:07:23;0.43;;;0.30;;
21206;SDS011;10761;48.532;8.026;2023-05-10T15:09:49;0.32;;;0.30;;
21206;SDS011;10761;48.532;8.026;2023-05-10T15:12:16;0.75;;;0.30;;
21206;SDS011;10761;48.532;8.026;2023-05-10T15:14:43;0.93;;;0.50;;
21206;SDS011;10761;48.532;8.026;2023-05-10T15:17:08;1.70;;;0.30;;
21206;SDS011;10761;48.532;8.026;2023-05-10T15:19:35;1.05;;;0.40;;
21206;SDS011;10761;48.532;8.026;2023-05-10T15:22:01;1.10;;;0.50;;
21206;SDS011;10761;48.532;8.026;2023-05-10T15:24:27;2.10;;;0.50;;
21206;SDS011;10761;48.532;8.026;2023-05-10T15:26:52;1.80;;;0.50;;
21206;SDS011;10761;48.532;8.026;2023-05-10T15:29:18;3.60;;;0.30;;
21206;SDS011;10761;48.532;8.026;2023-05-10T15:31:47;1.73;;;0.60;;
21206;SDS011;10761;48.532;8.026;2023-05-10T15:34:13;1.35;;;0.40;;